Portola, California
Current Conditions -  °F | °C
As of 10:35 PM on Tuesday 25 Nov 2014 (Local Time) from KRTS Reporting Station
Clear Clear  
Wind Chill: -3°   Ceiling: Unl
Heat Index:   Visibility: 10mi
Dew Point: -5°   Wind: 5mph
Humidity: 69%   Direction: 330°NNW
Pressure: 30.47"   Gusts: NA
Location:  39.81°N, 120.47°W
Report Text: KRTS 260635Z AUTO 33004KT 10SM CLR 00/M05 A3047 RMK AO2
Loading
Personal Weather Stations






























Interactive Weather Map New forecast layout! Learn more

10-Day Weather Forecast

Advertisements
Track Severe Weather on mobile